Granville, NY (12832)

12:30 PM EDT on July 04, 2015 (GMT -0400)
Granville | | Change Station
CLOSE
Current Station
Personal Weather Station
Location: Granville, NY
Elevation: 417 ft
Nearby Weather Stations

Elev 417 ft 43.40 °N, 73.27 °W | Updated 10 minutes ago

Overcast
Overcast
66.8 °F
Feels Like 66.8 °F
N
0.0
Wind Variable Wind from South
Gusts 3.0 mph

Today
High -- | Low -- °F
--% Chance of Precip.
Yesterday
High -- | Low -- °F
Precip. -- in
5:17 AM 8:36 PM
Waning Gibbous, 91% visible
Pressure 29.99 in
Visibility 5.0 miles
Clouds Scattered Clouds 2800 ft
Mostly Cloudy 7000 ft
Overcast 9000 ft
Dew Point 59 °F
Humidity 76%
Rainfall 0.00 in
Snow Depth Not available.
UV 3 out of 12
Pollen 1.00 out of 12
Air Quality Not available.
Flu Activity Not available.
SPECI KGFL 041611Z AUTO 18005KT 5SM -RA BR SCT028 BKN070 OVC090 17/15 A2999 RMK AO2 P0001 T01720150

More Conditions Fewer Conditions

Pressure 29.99 in
Visibility 5.0 miles
Clouds Scattered Clouds 2800 ft
Mostly Cloudy 7000 ft
Overcast 9000 ft
Dew Point 59 °F
Humidity 76%
Rainfall 0.00 in
Snow Depth Not available.
UV 3 out of 12
Pollen 1.00 out of 12
Air Quality Not available.
Flu Activity Not available.
SPECI KGFL 041611Z AUTO 18005KT 5SM -RA BR SCT028 BKN070 OVC090 17/15 A2999 RMK AO2 P0001 T01720150

More Conditions Fewer Conditions

10-Day Weather Forecast

×

Almanac

Astronomy

Jul. 04, 2015 Rise Set
Actual Time
Civil Twilight
Nautical Twilight
Astronomical Twilight
Moon
Length of Visible Light
Length of Day
Tomorrow will be .
, % of the Moon is Illuminated

Today's Extremes

State Highs State Lows

Community

WunderPhotos

Upload Photos

1,834,998 photos uploaded!

WunderBlogs® & News

Nearby

Air Quality

  Air Quality AQ Index Pollutant
Not available.

Snow Depth

Station Depth Elevation

Earthquake Activity

City Distance Mag. Time & Date
Minimum magnitude displayed is 2.5.

Coastal Water Temperatures

Place Temperature

Stations

Nearby Weather Stations

Station Location Temp. Windchill Dew Point Humidity Wind Precip. Elev Updated Type